Nearby METAR Reports

 

EGQL - Leuchars Raf, United Kingdom
Distance from station: SW 17km
Updated: 17/07/2019 18:50
Mostly cloudy
Mostly cloudy
 Wind from W
Wind: W 22 km/h
Temperature: 15°C
Dew Point: 14°C
Humidity: 94%
Barometer: 1002 hPa
Clouds: Mostly cloudy
Visibility: 10 km
Cloud details: Mostly cloudy 213 m
Mostly cloudy 640 m
2019/07/18 01:50 EGQL 180150Z 27012KT 9999 BKN007 BKN021 15/14 Q1002 GRN
EGPN - Dundee/Riverside, United Kingdom
Distance from station: WSW 20km
Updated: 17/07/2019 12:20
NOT Current
Light rain, Showers, Mostly cloudy
Light rain, Showers, Mostly cloudy
 Wind from SW
Wind: SW 13 km/h
Temperature: 17°C
Dew Point: 15°C
Humidity: 88%
Barometer: 1005 hPa
Summary: Light rain, Showers
Clouds: Mostly cloudy
Visibility: 10 km
Cloud details: Few Clouds 366 m
Mostly cloudy 610 m
2019/07/17 19:20 EGPN 171920Z 23007KT 9999 -SHRA FEW012 BKN020 17/15 Q1005
 
EGPH - Edinburgh Airpor, United Kingdom
Distance from station: SSW 74km
Updated: 17/07/2019 19:20
Clear
Clear
 Wind from WSW
Wind: WSW 20 km/h
Temperature: 11°C
Dew Point: 11°C
Humidity: 100%
Barometer: 1004 hPa
Summary: Clear
Visibility: greater than 10 km
2019/07/18 02:20 EGPH 180220Z 24011KT CAVOK 11/11 Q1004
EGPD - Aberdeen/Dyce, United Kingdom
Distance from station: NNE 82km
Updated: 17/07/2019 19:20
Heavy rain, Thunderstorm
Heavy rain, Thunderstorm
 Wind from varies
Wind: varies 4 km/h
Temperature: 14°C
Dew Point: 14°C
Humidity: 100%
Barometer: 1002 hPa
Summary: Heavy rain
Clouds: Thunderstorm
Visibility: 3 km
Cloud details: Partly cloudy 183 m
Mostly cloudy 732 m
Mostly cloudy 1036 m
2019/07/18 02:20 EGPD 180220Z AUTO VRB02KT 3100 +RA SCT006/// BKN024/// BKN034/// //////CB 14/14 Q1002